Time;durP1;ratioP1;P1;durP2;ratioP2;P2;SDS_P1;SDS_P2;PMS_P1;PMS_P2;Temp;Humidity;BMP_temperature;BMP_pressure;BME280_temperature;BME280_humidity;BME280_pressure;Samples;Min_cycle;Max_cycle;Signal;HPM_P1;HPM_P2
2023/10/15 00:02:33;;;;;;;6.63;3.40;;;;;;;;;;5177732;27;20101;-71
2023/10/15 00:05:21;;;;;;;5.32;2.90;;;;;;;;;;5178095;27;20032;-71
2023/10/15 00:08:06;;;;;;;6.05;3.60;;;;;;;;;;5177775;27;20086;-71
2023/10/15 00:10:52;;;;;;;5.82;3.10;;;;;;;;;;5161923;27;20010;-70
2023/10/15 00:13:37;;;;;;;6.63;3.55;;;;;;;;;;5177433;27;20097;-70
2023/10/15 00:16:24;;;;;;;7.32;3.38;;;;;;;;;;5177155;27;20018;-70
2023/10/15 00:19:10;;;;;;;7.55;3.53;;;;;;;;;;5176594;27;20026;-71
2023/10/15 00:21:56;;;;;;;6.32;3.13;;;;;;;;;;5161489;27;20018;-70
2023/10/15 00:24:41;;;;;;;6.45;3.17;;;;;;;;;;5177687;27;20074;-71
2023/10/15 00:27:29;;;;;;;10.50;3.38;;;;;;;;;;5176922;27;20404;-70
2023/10/15 00:30:19;;;;;;;9.07;3.60;;;;;;;;;;5177459;27;20029;-72
2023/10/15 00:33:09;;;;;;;8.93;4.25;;;;;;;;;;5175830;27;20030;-70
2023/10/15 00:35:55;;;;;;;7.32;4.18;;;;;;;;;;5162497;27;20018;-71
2023/10/15 00:38:43;;;;;;;9.27;4.78;;;;;;;;;;5176557;27;20121;-71
2023/10/15 00:41:29;;;;;;;7.90;4.85;;;;;;;;;;5176318;27;20014;-71
2023/10/15 00:44:15;;;;;;;5.97;4.03;;;;;;;;;;5176659;27;20121;-71
2023/10/15 00:47:03;;;;;;;5.47;3.90;;;;;;;;;;5176142;27;20022;-70
2023/10/15 00:49:48;;;;;;;5.45;3.30;;;;;;;;;;5161731;27;20050;-71
2023/10/15 00:52:37;;;;;;;6.15;3.60;;;;;;;;;;5176326;27;20014;-71
2023/10/15 00:55:23;;;;;;;6.95;3.92;;;;;;;;;;5176639;27;20022;-71
2023/10/15 00:58:09;;;;;;;10.15;4.28;;;;;;;;;;5176424;27;20059;-71
2023/10/15 01:01:00;;;;;;;7.03;4.38;;;;;;;;;;5176545;27;20113;-71
2023/10/15 01:03:49;;;;;;;8.57;4.55;;;;;;;;;;5176537;27;20463;-71
2023/10/15 01:06:36;;;;;;;10.25;4.50;;;;;;;;;;5175386;27;20037;-70
2023/10/15 01:09:28;;;;;;;6.78;3.95;;;;;;;;;;5175274;27;20078;-72
2023/10/15 01:12:23;;;;;;;10.00;4.00;;;;;;;;;;5161627;27;20455;-72
2023/10/15 01:15:09;;;;;;;8.27;4.28;;;;;;;;;;5176742;27;20018;-72
2023/10/15 01:18:00;;;;;;;8.60;4.30;;;;;;;;;;5176077;27;20015;-72
2023/10/15 01:20:46;;;;;;;14.45;4.45;;;;;;;;;;5175882;27;20034;-72
2023/10/15 01:23:36;;;;;;;16.27;4.75;;;;;;;;;;5161491;27;20015;-71
2023/10/15 01:26:25;;;;;;;13.65;5.25;;;;;;;;;;5175373;27;20432;-72
2023/10/15 01:29:15;;;;;;;9.15;4.93;;;;;;;;;;5176187;27;20026;-71
2023/10/15 01:32:11;;;;;;;10.15;4.60;;;;;;;;;;5160379;27;20022;-71
2023/10/15 01:34:59;;;;;;;9.95;4.50;;;;;;;;;;5176460;27;20400;-71
2023/10/15 01:38:04;;;;;;;7.32;4.57;;;;;;;;;;5176221;27;20074;-71
2023/10/15 01:40:56;;;;;;;10.77;4.22;;;;;;;;;;5175100;27;20370;-72
2023/10/15 01:43:46;;;;;;;7.85;4.47;;;;;;;;;;5175467;27;20025;-71
2023/10/15 01:49:56;;;;;;;8.48;4.70;;;;;;;;;;5112128;28;20043;-71
2023/10/15 01:52:42;;;;;;;8.60;4.30;;;;;;;;;;5113731;27;20020;-71
2023/10/15 01:55:29;;;;;;;13.90;4.43;;;;;;;;;;5168997;27;20030;-71
2023/10/15 01:58:16;;;;;;;7.93;4.30;;;;;;;;;;5174580;27;20026;-72
2023/10/15 02:01:31;;;;;;;8.27;4.55;;;;;;;;;;5173169;27;20029;-71
2023/10/15 02:04:29;;;;;;;8.35;4.18;;;;;;;;;;5175571;27;20337;-73
2023/10/15 02:07:16;;;;;;;5.32;3.70;;;;;;;;;;5175515;27;20029;-72
2023/10/15 02:10:05;;;;;;;9.25;4.03;;;;;;;;;;5176307;27;20419;-72
2023/10/15 02:13:00;;;;;;;7.47;4.38;;;;;;;;;;5176148;27;20026;-72
2023/10/15 02:15:46;;;;;;;7.43;4.05;;;;;;;;;;5154857;27;20440;-72
2023/10/15 02:18:31;;;;;;;8.45;3.97;;;;;;;;;;5155497;27;20023;-72
2023/10/15 02:21:17;;;;;;;10.13;4.22;;;;;;;;;;5156028;27;20038;-71
2023/10/15 02:24:09;;;;;;;7.88;4.15;;;;;;;;;;5156873;27;20413;-73
2023/10/15 02:26:54;;;;;;;7.35;3.80;;;;;;;;;;5166012;27;20029;-71
2023/10/15 02:29:41;;;;;;;7.30;4.00;;;;;;;;;;5163818;27;20019;-71
2023/10/15 02:35:13;;;;;;;9.05;4.05;;;;;;;;;;5155764;27;20059;-72
2023/10/15 02:37:59;;;;;;;8.57;4.80;;;;;;;;;;5157698;27;20079;-73
2023/10/15 02:40:56;;;;;;;11.00;4.63;;;;;;;;;;5156168;27;20075;-71
2023/10/15 02:43:48;;;;;;;8.05;4.80;;;;;;;;;;5154776;27;20053;-72
2023/10/15 02:49:19;;;;;;;6.75;4.72;;;;;;;;;;5157664;27;20043;-72
2023/10/15 02:52:10;;;;;;;8.13;4.57;;;;;;;;;;5159157;27;20022;-70
2023/10/15 02:54:59;;;;;;;10.27;4.63;;;;;;;;;;5153877;27;20046;-71
2023/10/15 02:57:45;;;;;;;12.43;4.78;;;;;;;;;;5154698;27;20086;-71
2023/10/15 03:00:33;;;;;;;7.30;4.03;;;;;;;;;;5154691;27;20460;-71
2023/10/15 03:03:23;;;;;;;9.00;4.22;;;;;;;;;;5154400;27;20019;-71
2023/10/15 03:06:09;;;;;;;9.05;4.43;;;;;;;;;;5154703;27;20025;-71
2023/10/15 03:08:56;;;;;;;7.57;4.28;;;;;;;;;;5153873;27;20034;-70
2023/10/15 03:11:50;;;;;;;5.50;3.70;;;;;;;;;;5140120;27;20022;-71
2023/10/15 03:14:36;;;;;;;7.68;3.92;;;;;;;;;;5159066;27;20026;-71
2023/10/15 03:17:25;;;;;;;6.15;3.65;;;;;;;;;;5159194;27;20034;-71
2023/10/15 03:20:39;;;;;;;6.47;3.55;;;;;;;;;;5159334;27;20480;-70
2023/10/15 03:23:17;;;;;;;7.32;3.78;;;;;;;;;;5158398;27;20018;-70
2023/10/15 03:26:05;;;;;;;6.85;3.67;;;;;;;;;;5158929;27;20440;-70
2023/10/15 03:28:51;;;;;;;8.20;3.70;;;;;;;;;;5158636;27;20185;-71
2023/10/15 03:31:37;;;;;;;7.97;4.07;;;;;;;;;;5158452;27;20022;-71
2023/10/15 03:34:23;;;;;;;4.93;3.95;;;;;;;;;;5143320;27;20054;-71
2023/10/15 03:37:15;;;;;;;7.95;3.70;;;;;;;;;;5157996;27;20023;-71
2023/10/15 03:40:10;;;;;;;5.55;3.70;;;;;;;;;;5157785;27;20114;-71
2023/10/15 03:43:01;;;;;;;8.15;4.00;;;;;;;;;;5157698;27;20031;-71
2023/10/15 03:45:53;;;;;;;11.70;3.97;;;;;;;;;;5157136;27;20053;-71
2023/10/15 03:48:47;;;;;;;8.98;4.00;;;;;;;;;;5157860;27;20019;-72
2023/10/15 03:51:43;;;;;;;8.85;3.92;;;;;;;;;;5143249;27;20105;-71
2023/10/15 03:54:33;;;;;;;6.47;3.70;;;;;;;;;;5158105;27;20055;-72
2023/10/15 03:57:27;;;;;;;9.15;4.15;;;;;;;;;;5142885;27;20087;-72
2023/10/15 04:00:26;;;;;;;12.85;3.70;;;;;;;;;;5143048;27;20019;-71
2023/10/15 04:06:30;;;;;;;10.82;4.38;;;;;;;;;;5131705;27;20075;-71
2023/10/15 04:09:15;;;;;;;10.98;3.80;;;;;;;;;;5158352;27;20109;-71
2023/10/15 04:12:06;;;;;;;8.98;4.00;;;;;;;;;;5157305;27;20080;-71
2023/10/15 04:14:52;;;;;;;8.10;4.53;;;;;;;;;;5157572;27;20046;-72
2023/10/15 04:17:37;;;;;;;8.90;4.82;;;;;;;;;;5142020;27;20450;-72
2023/10/15 04:20:33;;;;;;;11.90;4.85;;;;;;;;;;5156062;27;20086;-72
2023/10/15 04:23:56;;;;;;;8.85;4.68;;;;;;;;;;5155881;27;20054;-71
2023/10/15 04:26:30;;;;;;;8.38;4.60;;;;;;;;;;5157034;27;20094;-72
2023/10/15 04:29:20;;;;;;;10.55;5.10;;;;;;;;;;5156030;27;20018;-72
2023/10/15 04:32:10;;;;;;;12.45;5.65;;;;;;;;;;5156694;27;20355;-72
2023/10/15 04:35:01;;;;;;;15.77;5.70;;;;;;;;;;5156672;27;20360;-72
2023/10/15 04:37:52;;;;;;;14.18;5.82;;;;;;;;;;5167539;27;20046;-72
2023/10/15 04:43:41;;;;;;;11.05;5.40;;;;;;;;;;5174644;27;20021;-70
2023/10/15 04:46:27;;;;;;;10.95;6.00;;;;;;;;;;5175941;27;20070;-71
2023/10/15 04:49:17;;;;;;;8.60;5.70;;;;;;;;;;5174271;27;20054;-71
2023/10/15 04:52:13;;;;;;;12.55;5.55;;;;;;;;;;5167927;27;20444;-71
2023/10/15 04:55:00;;;;;;;10.60;5.43;;;;;;;;;;5158487;27;20437;-72
2023/10/15 04:57:46;;;;;;;13.05;5.32;;;;;;;;;;5142494;27;20023;-72
2023/10/15 05:00:33;;;;;;;12.23;4.95;;;;;;;;;;5155839;27;20018;-72
2023/10/15 05:03:18;;;;;;;15.25;5.38;;;;;;;;;;5156878;27;20027;-71
2023/10/15 05:06:06;;;;;;;12.40;4.85;;;;;;;;;;5157008;27;20019;-72
2023/10/15 05:08:53;;;;;;;11.82;5.15;;;;;;;;;;5156330;27;20027;-72
2023/10/15 05:11:39;;;;;;;8.50;5.15;;;;;;;;;;5141745;27;20023;-71
2023/10/15 05:14:25;;;;;;;7.22;4.97;;;;;;;;;;5156458;27;20439;-72
2023/10/15 05:17:10;;;;;;;8.68;4.78;;;;;;;;;;5157176;27;20027;-72
2023/10/15 05:19:56;;;;;;;9.63;4.30;;;;;;;;;;5155999;27;20105;-72
2023/10/15 05:22:41;;;;;;;7.43;4.65;;;;;;;;;;5155648;27;20034;-71
2023/10/15 05:25:27;;;;;;;9.20;4.63;;;;;;;;;;5155075;27;20428;-72
2023/10/15 05:28:14;;;;;;;11.63;4.47;;;;;;;;;;5156627;27;20072;-72
2023/10/15 05:31:00;;;;;;;6.78;4.25;;;;;;;;;;5155938;27;20079;-72
2023/10/15 05:33:46;;;;;;;8.38;4.43;;;;;;;;;;5157280;27;20436;-72
2023/10/15 05:36:32;;;;;;;16.33;4.50;;;;;;;;;;5155567;27;20035;-72
2023/10/15 05:39:18;;;;;;;13.05;4.95;;;;;;;;;;5141407;27;20449;-72
2023/10/15 05:42:07;;;;;;;12.93;4.72;;;;;;;;;;5141120;27;20019;-72
2023/10/15 05:44:53;;;;;;;8.63;4.55;;;;;;;;;;5154377;27;20391;-71
2023/10/15 05:47:39;;;;;;;11.57;4.70;;;;;;;;;;5155108;27;20025;-72
2023/10/15 05:50:25;;;;;;;6.90;4.40;;;;;;;;;;5134508;27;20043;-71
2023/10/15 05:53:11;;;;;;;11.10;4.63;;;;;;;;;;5136552;27;20068;-71
2023/10/15 05:55:57;;;;;;;9.13;4.50;;;;;;;;;;5134952;27;20494;-71
2023/10/15 05:58:43;;;;;;;7.97;4.40;;;;;;;;;;5135381;27;20023;-72
2023/10/15 06:01:29;;;;;;;7.95;4.57;;;;;;;;;;5134997;27;20042;-72
2023/10/15 06:04:14;;;;;;;11.23;4.72;;;;;;;;;;5134337;27;20019;-71
2023/10/15 06:07:00;;;;;;;8.18;4.70;;;;;;;;;;5134928;27;20015;-71
2023/10/15 06:09:45;;;;;;;8.90;4.95;;;;;;;;;;5134553;27;20459;-71
2023/10/15 06:12:31;;;;;;;12.13;4.70;;;;;;;;;;5135054;28;20387;-72
2023/10/15 06:15:17;;;;;;;12.65;4.35;;;;;;;;;;5135310;27;20050;-72
2023/10/15 06:18:03;;;;;;;9.43;4.38;;;;;;;;;;5134532;28;20015;-72
2023/10/15 06:20:48;;;;;;;8.40;4.72;;;;;;;;;;5133765;28;20023;-72
2023/10/15 06:23:34;;;;;;;8.15;4.55;;;;;;;;;;5135077;28;20023;-72
2023/10/15 06:26:20;;;;;;;6.65;4.45;;;;;;;;;;5134668;28;20019;-72
2023/10/15 06:29:06;;;;;;;11.73;4.72;;;;;;;;;;5134312;28;20102;-72
2023/10/15 06:31:51;;;;;;;16.48;5.28;;;;;;;;;;5135122;28;20019;-72
2023/10/15 06:34:39;;;;;;;12.27;5.00;;;;;;;;;;5132389;28;20019;-71
2023/10/15 06:37:26;;;;;;;11.63;5.05;;;;;;;;;;5134216;28;20023;-72
2023/10/15 06:40:13;;;;;;;9.88;5.22;;;;;;;;;;5134801;28;20030;-72
2023/10/15 06:43:00;;;;;;;17.00;5.50;;;;;;;;;;5135175;28;20027;-72
2023/10/15 06:45:45;;;;;;;14.40;5.30;;;;;;;;;;5134014;28;20348;-72
2023/10/15 06:48:33;;;;;;;13.25;6.25;;;;;;;;;;5139194;27;20034;-73
2023/10/15 06:51:18;;;;;;;18.48;7.60;;;;;;;;;;5159637;27;20163;-73
2023/10/15 06:54:04;;;;;;;16.10;9.13;;;;;;;;;;5145284;27;20034;-72
2023/10/15 06:56:50;;;;;;;24.55;10.77;;;;;;;;;;5160299;27;20428;-72
2023/10/15 06:59:37;;;;;;;18.92;9.77;;;;;;;;;;5144900;27;20026;-73
2023/10/15 07:02:22;;;;;;;17.15;9.30;;;;;;;;;;5159286;27;20018;-72
2023/10/15 07:05:08;;;;;;;16.77;8.23;;;;;;;;;;5146859;27;20449;-72
2023/10/15 07:07:56;;;;;;;24.55;8.45;;;;;;;;;;5158746;27;20403;-72
2023/10/15 07:10:42;;;;;;;17.52;8.27;;;;;;;;;;5158555;27;20436;-73
2023/10/15 07:13:28;;;;;;;15.85;8.23;;;;;;;;;;5159566;27;20445;-73
2023/10/15 07:16:17;;;;;;;13.52;7.97;;;;;;;;;;5144523;27;20027;-72
2023/10/15 07:19:03;;;;;;;16.75;7.55;;;;;;;;;;5145153;27;20097;-72
2023/10/15 07:21:49;;;;;;;17.15;7.10;;;;;;;;;;5157596;27;20374;-72
2023/10/15 07:24:35;;;;;;;12.50;7.07;;;;;;;;;;5158669;27;20026;-71
2023/10/15 07:27:21;;;;;;;15.65;6.90;;;;;;;;;;5157183;27;20322;-73
2023/10/15 07:30:06;;;;;;;14.30;6.13;;;;;;;;;;5158632;27;20015;-73
2023/10/15 07:33:02;;;;;;;8.40;5.50;;;;;;;;;;5158575;27;20018;-73
2023/10/15 07:35:48;;;;;;;10.93;5.80;;;;;;;;;;5158150;27;20044;-72
2023/10/15 07:38:36;;;;;;;12.88;6.18;;;;;;;;;;5158055;27;20019;-72
2023/10/15 07:41:22;;;;;;;10.30;5.50;;;;;;;;;;5158454;27;20015;-72
2023/10/15 07:44:08;;;;;;;10.77;5.72;;;;;;;;;;5159177;27;20087;-73
2023/10/15 07:46:53;;;;;;;10.05;5.40;;;;;;;;;;5158287;27;20417;-73
2023/10/15 07:49:39;;;;;;;8.85;5.72;;;;;;;;;;5157398;27;20055;-73
2023/10/15 07:52:25;;;;;;;13.63;6.00;;;;;;;;;;5158794;27;20162;-73
2023/10/15 07:55:10;;;;;;;13.15;6.55;;;;;;;;;;5158398;27;20570;-72
2023/10/15 07:57:57;;;;;;;17.83;7.20;;;;;;;;;;5157393;27;20030;-72
2023/10/15 08:00:43;;;;;;;11.07;6.85;;;;;;;;;;5157674;27;20022;-72
2023/10/15 08:03:29;;;;;;;18.40;7.10;;;;;;;;;;5157772;27;20023;-72
2023/10/15 08:06:14;;;;;;;18.02;6.78;;;;;;;;;;5158984;27;20044;-72
2023/10/15 08:09:00;;;;;;;15.02;6.90;;;;;;;;;;5157543;27;20455;-72
2023/10/15 08:11:46;;;;;;;13.20;6.65;;;;;;;;;;5157991;27;20018;-73
2023/10/15 08:14:31;;;;;;;16.70;6.68;;;;;;;;;;5158583;27;20022;-71
2023/10/15 08:17:17;;;;;;;14.10;6.95;;;;;;;;;;5143580;27;20444;-72
2023/10/15 08:20:04;;;;;;;13.40;6.82;;;;;;;;;;5158906;27;20069;-71
2023/10/15 08:22:50;;;;;;;16.27;8.40;;;;;;;;;;5156788;27;20424;-72
2023/10/15 08:25:36;;;;;;;25.92;7.88;;;;;;;;;;5156500;27;20448;-71
2023/10/15 08:28:22;;;;;;;18.48;8.77;;;;;;;;;;5158586;27;20014;-72
2023/10/15 08:31:08;;;;;;;17.55;7.53;;;;;;;;;;5157231;27;20164;-72
2023/10/15 08:33:53;;;;;;;15.35;8.52;;;;;;;;;;5156606;27;20034;-71
2023/10/15 08:36:39;;;;;;;15.93;7.95;;;;;;;;;;5157800;27;20058;-72
2023/10/15 08:39:26;;;;;;;17.35;8.73;;;;;;;;;;5157325;27;20045;-72
2023/10/15 08:42:13;;;;;;;21.20;8.55;;;;;;;;;;5157549;27;20110;-72
2023/10/15 08:44:59;;;;;;;19.15;9.48;;;;;;;;;;5157057;27;20027;-72
2023/10/15 08:47:46;;;;;;;15.70;8.55;;;;;;;;;;5156590;27;20030;-72
2023/10/15 08:50:36;;;;;;;22.50;8.65;;;;;;;;;;5128354;27;20175;-71
2023/10/15 08:53:22;;;;;;;18.95;8.75;;;;;;;;;;5156926;27;20026;-72
2023/10/15 08:56:09;;;;;;;14.10;7.32;;;;;;;;;;5157543;27;20084;-72
2023/10/15 08:58:56;;;;;;;18.88;7.38;;;;;;;;;;5157113;27;20030;-71
2023/10/15 09:01:42;;;;;;;14.82;8.10;;;;;;;;;;5156890;27;20032;-72
2023/10/15 09:04:28;;;;;;;19.58;8.07;;;;;;;;;;5156550;27;20459;-72
2023/10/15 09:07:17;;;;;;;24.65;8.52;;;;;;;;;;5157086;27;20022;-72
2023/10/15 09:10:03;;;;;;;17.40;7.75;;;;;;;;;;5154711;27;20062;-72
2023/10/15 09:12:49;;;;;;;13.90;7.32;;;;;;;;;;5157016;27;20025;-72
2023/10/15 09:15:36;;;;;;;19.80;7.82;;;;;;;;;;5156638;27;20034;-72
2023/10/15 09:18:24;;;;;;;16.73;7.80;;;;;;;;;;5156343;27;20014;-72
2023/10/15 09:21:10;;;;;;;20.80;8.23;;;;;;;;;;5141443;27;20014;-72
2023/10/15 09:23:55;;;;;;;23.00;11.52;;;;;;;;;;5140937;27;20109;-73
2023/10/15 09:26:41;;;;;;;17.33;8.30;;;;;;;;;;5156551;27;20470;-73
2023/10/15 09:29:30;;;;;;;20.90;9.20;;;;;;;;;;5155331;27;20033;-74
2023/10/15 09:32:15;;;;;;;20.83;7.72;;;;;;;;;;5158948;27;20019;-73
2023/10/15 09:35:03;;;;;;;24.27;10.38;;;;;;;;;;5156017;27;20015;-74
2023/10/15 09:37:49;;;;;;;13.70;8.00;;;;;;;;;;5169211;27;20451;-74
2023/10/15 09:40:35;;;;;;;17.83;8.18;;;;;;;;;;5174398;27;20026;-72
2023/10/15 09:43:23;;;;;;;22.33;9.27;;;;;;;;;;5176532;27;20030;-72
2023/10/15 09:46:09;;;;;;;14.43;8.65;;;;;;;;;;5175368;27;20026;-71
2023/10/15 09:48:57;;;;;;;23.92;10.27;;;;;;;;;;5175631;27;20030;-73
2023/10/15 09:51:43;;;;;;;22.33;8.48;;;;;;;;;;5161193;27;20394;-73
2023/10/15 09:54:30;;;;;;;16.85;7.85;;;;;;;;;;5175567;27;20498;-73
2023/10/15 09:57:18;;;;;;;22.75;8.93;;;;;;;;;;5175514;27;20037;-73
2023/10/15 10:00:07;;;;;;;23.00;11.35;;;;;;;;;;5174216;27;20154;-72
2023/10/15 10:02:58;;;;;;;20.15;8.05;;;;;;;;;;5175136;27;20049;-72
2023/10/15 10:05:51;;;;;;;22.95;8.27;;;;;;;;;;5159866;27;20014;-72
2023/10/15 10:08:56;;;;;;;21.25;8.23;;;;;;;;;;5175180;27;20097;-74
2023/10/15 10:11:45;;;;;;;18.92;8.77;;;;;;;;;;5175371;27;20015;-74
2023/10/15 10:14:46;;;;;;;18.50;8.05;;;;;;;;;;5174573;27;20423;-74
2023/10/15 10:17:32;;;;;;;15.25;7.95;;;;;;;;;;5175029;27;20022;-72
2023/10/15 10:20:19;;;;;;;17.40;8.10;;;;;;;;;;5174701;27;20071;-74
2023/10/15 10:23:06;;;;;;;17.33;8.30;;;;;;;;;;5158800;27;20018;-74
2023/10/15 10:25:58;;;;;;;23.38;8.18;;;;;;;;;;5159430;27;20025;-75
2023/10/15 10:28:45;;;;;;;15.80;7.38;;;;;;;;;;5175346;27;20440;-75
2023/10/15 10:31:34;;;;;;;16.33;7.40;;;;;;;;;;5159496;27;20014;-75
2023/10/15 10:34:29;;;;;;;16.92;7.03;;;;;;;;;;5174281;27;20021;-74
2023/10/15 10:37:19;;;;;;;17.05;7.18;;;;;;;;;;5160222;27;20052;-75
2023/10/15 10:40:05;;;;;;;14.73;7.28;;;;;;;;;;5173551;27;20018;-74
2023/10/15 10:42:59;;;;;;;19.10;7.57;;;;;;;;;;5173849;27;20018;-73
2023/10/15 10:46:01;;;;;;;21.60;8.38;;;;;;;;;;5174522;27;20033;-75
2023/10/15 10:49:01;;;;;;;18.67;8.65;;;;;;;;;;5174527;27;20070;-75
2023/10/15 10:52:19;;;;;;;20.90;8.23;;;;;;;;;;5174771;27;20082;-76
2023/10/15 10:55:23;;;;;;;18.70;8.55;;;;;;;;;;5159475;27;20022;-75
2023/10/15 10:58:23;;;;;;;14.82;7.70;;;;;;;;;;5175049;27;20022;-75
2023/10/15 11:01:10;;;;;;;19.90;7.60;;;;;;;;;;5174203;27;20027;-75
2023/10/15 11:03:56;;;;;;;17.42;7.35;;;;;;;;;;5174887;27;20026;-75
2023/10/15 11:06:45;;;;;;;16.58;7.78;;;;;;;;;;5159582;27;20018;-76
2023/10/15 11:09:31;;;;;;;19.02;7.40;;;;;;;;;;5174250;27;20027;-74
2023/10/15 11:12:16;;;;;;;21.05;8.18;;;;;;;;;;5174708;27;20028;-75
2023/10/15 11:15:07;;;;;;;17.45;7.95;;;;;;;;;;5174805;27;20014;-74
2023/10/15 11:17:56;;;;;;;21.67;8.57;;;;;;;;;;5175368;27;20086;-74
2023/10/15 11:20:41;;;;;;;18.13;8.70;;;;;;;;;;5175887;27;20034;-74
2023/10/15 11:23:27;;;;;;;16.45;8.70;;;;;;;;;;5173738;27;20065;-74
2023/10/15 11:26:12;;;;;;;16.17;7.88;;;;;;;;;;5174494;27;20022;-74
2023/10/15 11:28:58;;;;;;;16.42;8.45;;;;;;;;;;5159157;27;20015;-75
2023/10/15 11:31:44;;;;;;;24.17;8.90;;;;;;;;;;5174365;27;20022;-74
2023/10/15 11:34:31;;;;;;;14.30;8.65;;;;;;;;;;5177134;27;20034;-75
2023/10/15 11:37:19;;;;;;;21.55;8.65;;;;;;;;;;5177825;27;20448;-74
2023/10/15 11:40:10;;;;;;;24.30;8.60;;;;;;;;;;5177247;27;20055;-74
2023/10/15 11:42:55;;;;;;;21.50;9.38;;;;;;;;;;5176968;27;20049;-76
2023/10/15 11:45:41;;;;;;;18.02;8.35;;;;;;;;;;5178258;27;20435;-74
2023/10/15 11:48:27;;;;;;;14.52;8.32;;;;;;;;;;5177721;27;20055;-74
2023/10/15 11:51:13;;;;;;;20.38;8.50;;;;;;;;;;5177462;27;20037;-75
2023/10/15 11:54:02;;;;;;;19.25;8.90;;;;;;;;;;5177143;27;20042;-74
2023/10/15 11:56:47;;;;;;;17.42;8.65;;;;;;;;;;5175746;27;20053;-75
2023/10/15 11:59:34;;;;;;;19.83;8.50;;;;;;;;;;5176893;27;20053;-74
2023/10/15 12:02:25;;;;;;;18.02;10.20;;;;;;;;;;5176640;27;20483;-73
2023/10/15 12:05:11;;;;;;;17.00;10.18;;;;;;;;;;5177122;27;20050;-75
2023/10/15 12:08:00;;;;;;;22.48;9.75;;;;;;;;;;5175933;27;20430;-74
2023/10/15 12:10:45;;;;;;;27.70;11.05;;;;;;;;;;5175995;27;20026;-76
2023/10/15 12:13:31;;;;;;;26.10;10.45;;;;;;;;;;5175930;27;20026;-74
2023/10/15 12:16:17;;;;;;;22.77;10.38;;;;;;;;;;5177378;27;20014;-74
2023/10/15 12:19:03;;;;;;;20.40;9.90;;;;;;;;;;5176392;27;20114;-75
2023/10/15 12:21:50;;;;;;;18.17;9.88;;;;;;;;;;5175732;27;20023;-75
2023/10/15 12:24:35;;;;;;;23.35;10.35;;;;;;;;;;5176149;27;20105;-75
2023/10/15 12:27:21;;;;;;;32.88;9.70;;;;;;;;;;5177265;27;20018;-74
2023/10/15 12:30:19;;;;;;;22.30;9.48;;;;;;;;;;5176806;27;20086;-74
2023/10/15 12:33:07;;;;;;;16.15;9.50;;;;;;;;;;5161370;27;20045;-74
2023/10/15 12:35:54;;;;;;;18.73;8.27;;;;;;;;;;5176995;27;20022;-75
2023/10/15 12:38:39;;;;;;;16.10;9.05;;;;;;;;;;5176941;27;20018;-74
2023/10/15 12:41:25;;;;;;;39.33;10.02;;;;;;;;;;5176699;27;20090;-75
2023/10/15 12:44:11;;;;;;;17.65;8.45;;;;;;;;;;5177315;27;20351;-75
2023/10/15 12:46:56;;;;;;;20.40;8.98;;;;;;;;;;5175656;27;20079;-74
2023/10/15 12:49:42;;;;;;;20.92;8.98;;;;;;;;;;5176889;27;20048;-75
2023/10/15 12:52:28;;;;;;;28.48;10.25;;;;;;;;;;5163330;27;20014;-73
2023/10/15 12:55:20;;;;;;;19.52;9.40;;;;;;;;;;5168342;27;20381;-73
2023/10/15 12:58:05;;;;;;;17.33;8.93;;;;;;;;;;5166021;27;20034;-73
2023/10/15 13:00:52;;;;;;;23.95;9.90;;;;;;;;;;5166678;27;20015;-73
2023/10/15 13:03:38;;;;;;;27.13;10.25;;;;;;;;;;5164161;27;20053;-74
2023/10/15 13:06:25;;;;;;;41.22;11.43;;;;;;;;;;5163949;27;20083;-73
2023/10/15 13:09:18;;;;;;;24.25;12.02;;;;;;;;;;5163542;27;20011;-73
2023/10/15 13:12:06;;;;;;;18.83;12.48;;;;;;;;;;5163444;27;20011;-73
2023/10/15 13:14:52;;;;;;;22.75;14.20;;;;;;;;;;5164027;27;20036;-73
2023/10/15 13:17:38;;;;;;;25.90;14.65;;;;;;;;;;5156795;27;20474;-73
2023/10/15 13:20:23;;;;;;;22.13;15.55;;;;;;;;;;5154903;27;20022;-73
2023/10/15 13:23:09;;;;;;;27.92;13.90;;;;;;;;;;5154638;27;20054;-73
2023/10/15 13:25:56;;;;;;;21.48;14.18;;;;;;;;;;5161069;27;20070;-73
2023/10/15 13:28:43;;;;;;;20.02;13.20;;;;;;;;;;5176423;27;20029;-72
2023/10/15 13:31:30;;;;;;;18.30;12.23;;;;;;;;;;5175892;27;20057;-73
2023/10/15 13:34:15;;;;;;;18.02;11.20;;;;;;;;;;5176407;27;20033;-74
2023/10/15 13:37:03;;;;;;;23.45;11.02;;;;;;;;;;5175690;27;20395;-74
2023/10/15 13:39:56;;;;;;;17.00;11.10;;;;;;;;;;5175359;27;20026;-74
2023/10/15 13:42:42;;;;;;;18.13;11.00;;;;;;;;;;5158543;27;20014;-73
2023/10/15 13:45:28;;;;;;;20.63;11.23;;;;;;;;;;5174702;27;20019;-74
2023/10/15 13:48:14;;;;;;;18.42;11.23;;;;;;;;;;5173025;27;20378;-73
2023/10/15 13:51:00;;;;;;;19.70;11.25;;;;;;;;;;5159542;27;20034;-73
2023/10/15 13:53:45;;;;;;;16.90;11.10;;;;;;;;;;5160650;27;20037;-73
2023/10/15 13:56:31;;;;;;;21.95;10.25;;;;;;;;;;5174030;27;20022;-74
2023/10/15 13:59:20;;;;;;;16.23;10.20;;;;;;;;;;5175405;27;20061;-74
2023/10/15 14:02:07;;;;;;;19.80;9.65;;;;;;;;;;5174813;27;20054;-73
2023/10/15 14:04:53;;;;;;;25.02;10.10;;;;;;;;;;5174297;27;20018;-73
2023/10/15 14:07:38;;;;;;;17.40;10.35;;;;;;;;;;5174459;27;20510;-73
2023/10/15 14:10:24;;;;;;;24.65;11.63;;;;;;;;;;5175342;27;20570;-74
2023/10/15 14:13:10;;;;;;;23.55;10.75;;;;;;;;;;5174825;27;20025;-74
2023/10/15 14:16:01;;;;;;;19.42;11.75;;;;;;;;;;5174220;27;20014;-73
2023/10/15 14:18:48;;;;;;;18.45;11.70;;;;;;;;;;5166456;27;20078;-73
2023/10/15 14:21:35;;;;;;;24.58;11.32;;;;;;;;;;5176321;27;20348;-74
2023/10/15 14:24:20;;;;;;;20.15;11.77;;;;;;;;;;5174144;27;20348;-72
2023/10/15 14:27:06;;;;;;;22.02;11.55;;;;;;;;;;5160762;27;20308;-73
2023/10/15 14:29:52;;;;;;;46.15;14.43;;;;;;;;;;5175753;27;20507;-73
2023/10/15 14:32:37;;;;;;;229.50;22.67;;;;;;;;;;5174255;27;20078;-73
2023/10/15 14:35:23;;;;;;;56.25;12.75;;;;;;;;;;5175522;27;20030;-74
2023/10/15 14:38:09;;;;;;;20.40;11.30;;;;;;;;;;5159314;27;20098;-74
2023/10/15 14:40:54;;;;;;;19.88;10.60;;;;;;;;;;5169672;27;20011;-74
2023/10/15 14:43:40;;;;;;;29.60;11.45;;;;;;;;;;5153877;27;20429;-73
2023/10/15 14:46:25;;;;;;;16.17;10.02;;;;;;;;;;5153992;27;20030;-72
2023/10/15 14:49:11;;;;;;;21.65;11.07;;;;;;;;;;5152750;27;20049;-73
2023/10/15 14:51:58;;;;;;;25.38;10.80;;;;;;;;;;5153924;27;20500;-73
2023/10/15 14:54:44;;;;;;;27.40;10.88;;;;;;;;;;5154322;27;20406;-72
2023/10/15 14:57:29;;;;;;;18.13;10.32;;;;;;;;;;5139223;27;20022;-74
2023/10/15 15:00:15;;;;;;;20.30;9.77;;;;;;;;;;5154873;27;20015;-73
2023/10/15 15:03:01;;;;;;;18.48;9.50;;;;;;;;;;5154704;27;20050;-73
2023/10/15 15:05:47;;;;;;;19.58;9.63;;;;;;;;;;5154117;27;20022;-75
2023/10/15 15:08:32;;;;;;;12.68;8.80;;;;;;;;;;5132335;27;20012;-73
2023/10/15 15:11:18;;;;;;;17.60;9.05;;;;;;;;;;5136188;27;20065;-74
2023/10/15 15:14:06;;;;;;;18.77;10.27;;;;;;;;;;5139614;27;20023;-73
2023/10/15 15:16:52;;;;;;;15.85;9.18;;;;;;;;;;5143214;27;20034;-73
2023/10/15 15:19:37;;;;;;;20.15;9.45;;;;;;;;;;5142768;27;20103;-74
2023/10/15 15:22:23;;;;;;;20.58;9.18;;;;;;;;;;5158433;27;20164;-72
2023/10/15 15:25:10;;;;;;;14.43;9.13;;;;;;;;;;5142364;27;20384;-74
2023/10/15 15:27:57;;;;;;;15.82;9.23;;;;;;;;;;5143227;27;20018;-73
2023/10/15 15:30:42;;;;;;;22.67;9.07;;;;;;;;;;5157781;27;20363;-74
2023/10/15 15:33:28;;;;;;;23.15;9.15;;;;;;;;;;5157068;27;20075;-75
2023/10/15 15:36:15;;;;;;;18.50;9.00;;;;;;;;;;5157270;27;20029;-73
2023/10/15 15:39:03;;;;;;;26.05;9.60;;;;;;;;;;5158188;27;20018;-73
2023/10/15 15:41:49;;;;;;;15.13;8.38;;;;;;;;;;5157693;27;20023;-73
2023/10/15 15:44:36;;;;;;;27.98;10.30;;;;;;;;;;5157415;27;20094;-69
2023/10/15 15:47:22;;;;;;;17.55;9.32;;;;;;;;;;5157548;27;20352;-70
2023/10/15 15:50:11;;;;;;;20.92;9.88;;;;;;;;;;5157018;27;20453;-72
2023/10/15 15:52:56;;;;;;;16.55;8.77;;;;;;;;;;5157998;27;20434;-72
2023/10/15 15:55:42;;;;;;;16.13;8.90;;;;;;;;;;5142376;27;20436;-71
2023/10/15 15:58:28;;;;;;;17.15;9.50;;;;;;;;;;5160121;27;20342;-72
2023/10/15 16:01:22;;;;;;;16.25;8.63;;;;;;;;;;5154282;27;20027;-72
2023/10/15 16:04:08;;;;;;;15.73;8.43;;;;;;;;;;5136142;27;20031;-70
2023/10/15 16:06:54;;;;;;;16.38;8.45;;;;;;;;;;5136095;27;20457;-72
2023/10/15 16:09:41;;;;;;;22.25;8.60;;;;;;;;;;5139678;27;20043;-70
2023/10/15 16:12:26;;;;;;;21.40;8.90;;;;;;;;;;5140722;27;20022;-72
2023/10/15 16:15:13;;;;;;;19.00;9.23;;;;;;;;;;5145338;27;20088;-70
2023/10/15 16:18:00;;;;;;;14.27;8.27;;;;;;;;;;5146793;27;20460;-70
2023/10/15 16:20:49;;;;;;;17.92;8.45;;;;;;;;;;5141632;27;20022;-71
2023/10/15 16:23:34;;;;;;;16.13;7.90;;;;;;;;;;5137542;27;20077;-73
2023/10/15 16:26:20;;;;;;;13.68;7.40;;;;;;;;;;5135729;27;20019;-72
2023/10/15 16:29:05;;;;;;;17.50;7.72;;;;;;;;;;5135520;27;20023;-71
2023/10/15 16:31:51;;;;;;;14.75;7.28;;;;;;;;;;5136439;27;20039;-72
2023/10/15 16:34:38;;;;;;;16.77;8.07;;;;;;;;;;5135735;27;20030;-71
2023/10/15 16:37:23;;;;;;;16.05;8.18;;;;;;;;;;5135939;27;20492;-71
2023/10/15 16:40:12;;;;;;;14.18;7.55;;;;;;;;;;5135824;27;20167;-72
2023/10/15 16:42:58;;;;;;;19.08;8.57;;;;;;;;;;5136017;27;20240;-71
2023/10/15 16:45:44;;;;;;;16.15;8.48;;;;;;;;;;5136387;27;20015;-72
2023/10/15 16:48:30;;;;;;;21.20;8.50;;;;;;;;;;5138997;27;20110;-71